sensor_id;sensor_type;location;lat;lon;timestamp;temperature;humidity
5009;DHT22;2523;51.058;6.922;2023-04-24T00:00:35;11.40;93.70
5009;DHT22;2523;51.058;6.922;2023-04-24T00:03:01;11.40;23.90
5009;DHT22;2523;51.058;6.922;2023-04-24T00:05:28;11.50;19.80
5009;DHT22;2523;51.058;6.922;2023-04-24T00:07:54;11.50;99.90
5009;DHT22;2523;51.058;6.922;2023-04-24T00:10:20;11.40;72.40
5009;DHT22;2523;51.058;6.922;2023-04-24T00:12:46;11.50;99.30
5009;DHT22;2523;51.058;6.922;2023-04-24T00:15:11;11.50;99.90
5009;DHT22;2523;51.058;6.922;2023-04-24T00:17:37;11.50;99.90
5009;DHT22;2523;51.058;6.922;2023-04-24T00:20:03;11.60;99.90
5009;DHT22;2523;51.058;6.922;2023-04-24T00:22:30;11.60;99.90
5009;DHT22;2523;51.058;6.922;2023-04-24T00:24:56;11.60;99.90
5009;DHT22;2523;51.058;6.922;2023-04-24T00:27:22;11.60;99.90
5009;DHT22;2523;51.058;6.922;2023-04-24T00:29:48;11.60;99.90
5009;DHT22;2523;51.058;6.922;2023-04-24T00:32:14;11.70;99.90
5009;DHT22;2523;51.058;6.922;2023-04-24T00:34:40;11.60;99.90
5009;DHT22;2523;51.058;6.922;2023-04-24T00:37:05;11.60;99.90
5009;DHT22;2523;51.058;6.922;2023-04-24T00:39:32;11.60;99.90
5009;DHT22;2523;51.058;6.922;2023-04-24T00:41:57;11.70;99.90
5009;DHT22;2523;51.058;6.922;2023-04-24T00:44:23;11.70;99.90
5009;DHT22;2523;51.058;6.922;2023-04-24T00:46:49;11.70;99.90
5009;DHT22;2523;51.058;6.922;2023-04-24T00:49:18;11.70;99.90
5009;DHT22;2523;51.058;6.922;2023-04-24T00:51:44;11.70;99.90
5009;DHT22;2523;51.058;6.922;2023-04-24T00:54:11;11.70;99.90
5009;DHT22;2523;51.058;6.922;2023-04-24T00:56:37;11.70;99.90
5009;DHT22;2523;51.058;6.922;2023-04-24T00:59:02;11.70;99.90
5009;DHT22;2523;51.058;6.922;2023-04-24T01:01:28;11.70;41.70
5009;DHT22;2523;51.058;6.922;2023-04-24T01:03:53;11.70;91.70
5009;DHT22;2523;51.058;6.922;2023-04-24T01:06:20;11.70;99.90
5009;DHT22;2523;51.058;6.922;2023-04-24T01:08:46;11.70;99.90
5009;DHT22;2523;51.058;6.922;2023-04-24T01:11:13;11.70;99.90
5009;DHT22;2523;51.058;6.922;2023-04-24T01:13:39;11.70;99.90
5009;DHT22;2523;51.058;6.922;2023-04-24T01:16:05;11.60;11.70
5009;DHT22;2523;51.058;6.922;2023-04-24T01:18:31;11.60;99.90
5009;DHT22;2523;51.058;6.922;2023-04-24T01:20:59;11.60;99.90
5009;DHT22;2523;51.058;6.922;2023-04-24T01:23:28;11.50;87.10
5009;DHT22;2523;51.058;6.922;2023-04-24T01:25:54;11.60;99.90
5009;DHT22;2523;51.058;6.922;2023-04-24T01:28:19;11.60;1.00
5009;DHT22;2523;51.058;6.922;2023-04-24T01:30:45;11.50;14.90
5009;DHT22;2523;51.058;6.922;2023-04-24T01:33:10;11.40;10.40
5009;DHT22;2523;51.058;6.922;2023-04-24T01:35:37;11.40;1.00
5009;DHT22;2523;51.058;6.922;2023-04-24T01:38:03;11.30;1.00
5009;DHT22;2523;51.058;6.922;2023-04-24T01:40:29;11.20;1.00
5009;DHT22;2523;51.058;6.922;2023-04-24T01:42:55;11.00;1.00
5009;DHT22;2523;51.058;6.922;2023-04-24T01:45:21;10.90;1.00
5009;DHT22;2523;51.058;6.922;2023-04-24T01:47:47;10.80;1.00
5009;DHT22;2523;51.058;6.922;2023-04-24T01:50:14;10.80;1.00
5009;DHT22;2523;51.058;6.922;2023-04-24T01:52:39;10.70;1.00
5009;DHT22;2523;51.058;6.922;2023-04-24T01:55:06;10.70;1.00
5009;DHT22;2523;51.058;6.922;2023-04-24T01:57:33;10.60;1.00
5009;DHT22;2523;51.058;6.922;2023-04-24T01:59:58;10.50;1.00
5009;DHT22;2523;51.058;6.922;2023-04-24T02:02:24;10.50;1.00
5009;DHT22;2523;51.058;6.922;2023-04-24T02:04:55;10.50;1.00
5009;DHT22;2523;51.058;6.922;2023-04-24T02:07:21;10.40;4.60
5009;DHT22;2523;51.058;6.922;2023-04-24T02:09:47;10.30;1.00
5009;DHT22;2523;51.058;6.922;2023-04-24T02:12:12;10.30;1.00
5009;DHT22;2523;51.058;6.922;2023-04-24T02:14:38;10.20;99.90
5009;DHT22;2523;51.058;6.922;2023-04-24T02:17:04;10.20;99.90
5009;DHT22;2523;51.058;6.922;2023-04-24T02:19:30;10.10;45.30
5009;DHT22;2523;51.058;6.922;2023-04-24T02:21:56;10.10;76.50
5009;DHT22;2523;51.058;6.922;2023-04-24T02:24:21;10.00;99.90
5009;DHT22;2523;51.058;6.922;2023-04-24T02:26:47;10.00;99.90
5009;DHT22;2523;51.058;6.922;2023-04-24T02:29:12;10.00;99.90
5009;DHT22;2523;51.058;6.922;2023-04-24T02:31:38;9.90;99.90
5009;DHT22;2523;51.058;6.922;2023-04-24T02:34:03;10.00;99.90
5009;DHT22;2523;51.058;6.922;2023-04-24T02:36:29;10.00;99.90
5009;DHT22;2523;51.058;6.922;2023-04-24T02:38:55;9.90;99.90
5009;DHT22;2523;51.058;6.922;2023-04-24T02:41:21;9.90;99.90
5009;DHT22;2523;51.058;6.922;2023-04-24T02:43:46;9.90;99.90
5009;DHT22;2523;51.058;6.922;2023-04-24T02:46:12;9.90;99.90
5009;DHT22;2523;51.058;6.922;2023-04-24T02:48:37;10.00;99.90
5009;DHT22;2523;51.058;6.922;2023-04-24T02:51:03;10.00;99.90
5009;DHT22;2523;51.058;6.922;2023-04-24T02:53:29;10.00;99.90
5009;DHT22;2523;51.058;6.922;2023-04-24T02:55:56;10.00;99.90
5009;DHT22;2523;51.058;6.922;2023-04-24T02:58:22;10.10;99.90
5009;DHT22;2523;51.058;6.922;2023-04-24T03:00:47;10.10;99.90
5009;DHT22;2523;51.058;6.922;2023-04-24T03:03:13;10.10;99.90
5009;DHT22;2523;51.058;6.922;2023-04-24T03:05:39;10.20;2.50
5009;DHT22;2523;51.058;6.922;2023-04-24T03:08:04;10.20;1.00
5009;DHT22;2523;51.058;6.922;2023-04-24T03:10:30;10.20;1.00
5009;DHT22;2523;51.058;6.922;2023-04-24T03:12:56;10.20;1.00
5009;DHT22;2523;51.058;6.922;2023-04-24T03:15:21;10.20;1.00
5009;DHT22;2523;51.058;6.922;2023-04-24T03:17:47;10.20;1.00
5009;DHT22;2523;51.058;6.922;2023-04-24T03:20:13;10.20;1.00
5009;DHT22;2523;51.058;6.922;2023-04-24T03:22:38;10.20;1.00
5009;DHT22;2523;51.058;6.922;2023-04-24T03:25:04;10.20;1.00
5009;DHT22;2523;51.058;6.922;2023-04-24T03:27:30;10.10;1.00
5009;DHT22;2523;51.058;6.922;2023-04-24T03:29:56;10.20;1.00
5009;DHT22;2523;51.058;6.922;2023-04-24T03:32:22;10.20;99.90
5009;DHT22;2523;51.058;6.922;2023-04-24T03:34:48;10.20;1.00
5009;DHT22;2523;51.058;6.922;2023-04-24T03:37:15;10.20;1.00
5009;DHT22;2523;51.058;6.922;2023-04-24T03:39:41;10.20;1.00
5009;DHT22;2523;51.058;6.922;2023-04-24T03:42:07;10.20;1.00
5009;DHT22;2523;51.058;6.922;2023-04-24T03:44:34;10.20;1.00
5009;DHT22;2523;51.058;6.922;2023-04-24T03:46:59;10.10;1.00
5009;DHT22;2523;51.058;6.922;2023-04-24T03:49:25;10.20;1.00
5009;DHT22;2523;51.058;6.922;2023-04-24T03:51:51;10.10;1.00
5009;DHT22;2523;51.058;6.922;2023-04-24T03:54:17;10.10;5.40
5009;DHT22;2523;51.058;6.922;2023-04-24T03:56:43;10.10;1.00
5009;DHT22;2523;51.058;6.922;2023-04-24T03:59:09;10.20;1.00
5009;DHT22;2523;51.058;6.922;2023-04-24T04:01:34;10.20;1.00
5009;DHT22;2523;51.058;6.922;2023-04-24T04:04:03;10.10;1.00
5009;DHT22;2523;51.058;6.922;2023-04-24T04:06:28;10.10;1.00
5009;DHT22;2523;51.058;6.922;2023-04-24T04:08:56;10.10;1.00
5009;DHT22;2523;51.058;6.922;2023-04-24T04:11:21;10.10;1.00
5009;DHT22;2523;51.058;6.922;2023-04-24T04:13:47;10.20;1.00
5009;DHT22;2523;51.058;6.922;2023-04-24T04:16:13;10.10;1.00
5009;DHT22;2523;51.058;6.922;2023-04-24T04:18:39;10.10;1.00
5009;DHT22;2523;51.058;6.922;2023-04-24T04:21:04;10.10;1.00
5009;DHT22;2523;51.058;6.922;2023-04-24T04:23:30;10.10;1.00
5009;DHT22;2523;51.058;6.922;2023-04-24T04:25:57;10.10;1.00
5009;DHT22;2523;51.058;6.922;2023-04-24T04:28:22;10.10;1.00
5009;DHT22;2523;51.058;6.922;2023-04-24T04:30:50;10.10;1.00
5009;DHT22;2523;51.058;6.922;2023-04-24T04:33:21;10.10;1.00
5009;DHT22;2523;51.058;6.922;2023-04-24T04:35:47;10.10;1.00
5009;DHT22;2523;51.058;6.922;2023-04-24T04:38:18;10.10;1.00
5009;DHT22;2523;51.058;6.922;2023-04-24T04:40:44;10.00;1.00
5009;DHT22;2523;51.058;6.922;2023-04-24T04:43:10;10.10;1.00
5009;DHT22;2523;51.058;6.922;2023-04-24T04:45:37;10.10;1.00
5009;DHT22;2523;51.058;6.922;2023-04-24T04:48:04;10.10;1.00
5009;DHT22;2523;51.058;6.922;2023-04-24T04:50:30;10.10;1.00
5009;DHT22;2523;51.058;6.922;2023-04-24T04:52:55;10.10;1.00
5009;DHT22;2523;51.058;6.922;2023-04-24T04:55:21;10.10;1.00
5009;DHT22;2523;51.058;6.922;2023-04-24T04:57:46;10.10;1.00
5009;DHT22;2523;51.058;6.922;2023-04-24T05:00:12;10.10;1.00
5009;DHT22;2523;51.058;6.922;2023-04-24T05:02:38;10.10;1.00
5009;DHT22;2523;51.058;6.922;2023-04-24T05:05:05;10.10;1.00
5009;DHT22;2523;51.058;6.922;2023-04-24T05:07:31;10.10;1.00
5009;DHT22;2523;51.058;6.922;2023-04-24T05:09:57;10.10;1.00
5009;DHT22;2523;51.058;6.922;2023-04-24T05:12:22;10.10;1.00
5009;DHT22;2523;51.058;6.922;2023-04-24T05:14:48;10.20;1.00
5009;DHT22;2523;51.058;6.922;2023-04-24T05:17:13;10.10;1.00
5009;DHT22;2523;51.058;6.922;2023-04-24T05:19:39;10.10;1.00
5009;DHT22;2523;51.058;6.922;2023-04-24T05:22:05;10.10;1.00
5009;DHT22;2523;51.058;6.922;2023-04-24T05:24:35;10.10;1.00
5009;DHT22;2523;51.058;6.922;2023-04-24T05:27:04;10.20;1.00
5009;DHT22;2523;51.058;6.922;2023-04-24T05:29:30;10.10;1.00
5009;DHT22;2523;51.058;6.922;2023-04-24T05:31:57;10.10;1.00
5009;DHT22;2523;51.058;6.922;2023-04-24T05:34:23;10.20;10.40
5009;DHT22;2523;51.058;6.922;2023-04-24T05:36:48;10.10;18.30
5009;DHT22;2523;51.058;6.922;2023-04-24T05:39:14;10.00;99.90
5009;DHT22;2523;51.058;6.922;2023-04-24T05:41:40;10.00;99.90
5009;DHT22;2523;51.058;6.922;2023-04-24T05:44:06;10.00;99.90
5009;DHT22;2523;51.058;6.922;2023-04-24T05:46:31;10.00;99.90
5009;DHT22;2523;51.058;6.922;2023-04-24T05:48:57;10.00;99.90
5009;DHT22;2523;51.058;6.922;2023-04-24T05:51:23;10.00;99.90
5009;DHT22;2523;51.058;6.922;2023-04-24T05:53:49;9.90;99.90
5009;DHT22;2523;51.058;6.922;2023-04-24T05:56:15;9.90;99.90
5009;DHT22;2523;51.058;6.922;2023-04-24T05:58:41;9.90;99.90
5009;DHT22;2523;51.058;6.922;2023-04-24T06:01:07;9.90;1.00
5009;DHT22;2523;51.058;6.922;2023-04-24T06:03:32;9.90;99.90
5009;DHT22;2523;51.058;6.922;2023-04-24T06:05:58;9.90;1.00
5009;DHT22;2523;51.058;6.922;2023-04-24T06:08:24;9.90;99.90
5009;DHT22;2523;51.058;6.922;2023-04-24T06:10:49;9.90;99.90
5009;DHT22;2523;51.058;6.922;2023-04-24T06:13:15;9.90;99.90
5009;DHT22;2523;51.058;6.922;2023-04-24T06:15:41;9.90;99.90
5009;DHT22;2523;51.058;6.922;2023-04-24T06:18:06;9.90;99.90
5009;DHT22;2523;51.058;6.922;2023-04-24T06:20:32;9.90;99.90
5009;DHT22;2523;51.058;6.922;2023-04-24T06:22:58;9.90;99.90
5009;DHT22;2523;51.058;6.922;2023-04-24T06:25:25;9.90;99.90
5009;DHT22;2523;51.058;6.922;2023-04-24T06:27:52;9.90;84.20
5009;DHT22;2523;51.058;6.922;2023-04-24T06:30:17;9.80;99.90
5009;DHT22;2523;51.058;6.922;2023-04-24T06:32:43;9.90;99.90
5009;DHT22;2523;51.058;6.922;2023-04-24T06:35:08;9.80;99.90
5009;DHT22;2523;51.058;6.922;2023-04-24T06:37:35;9.70;99.90
5009;DHT22;2523;51.058;6.922;2023-04-24T06:40:01;9.70;99.90
5009;DHT22;2523;51.058;6.922;2023-04-24T06:42:26;9.60;1.00
5009;DHT22;2523;51.058;6.922;2023-04-24T06:44:52;9.60;1.00
5009;DHT22;2523;51.058;6.922;2023-04-24T06:47:17;9.60;1.00
5009;DHT22;2523;51.058;6.922;2023-04-24T06:49:43;9.60;99.90
5009;DHT22;2523;51.058;6.922;2023-04-24T06:52:09;9.60;98.80
5009;DHT22;2523;51.058;6.922;2023-04-24T06:54:35;9.50;99.90
5009;DHT22;2523;51.058;6.922;2023-04-24T06:57:00;9.40;99.90
5009;DHT22;2523;51.058;6.922;2023-04-24T06:59:27;9.40;1.00
5009;DHT22;2523;51.058;6.922;2023-04-24T07:01:54;9.40;99.90
5009;DHT22;2523;51.058;6.922;2023-04-24T07:04:20;9.40;99.90
5009;DHT22;2523;51.058;6.922;2023-04-24T07:06:46;9.30;1.00
5009;DHT22;2523;51.058;6.922;2023-04-24T07:09:12;9.30;1.00
5009;DHT22;2523;51.058;6.922;2023-04-24T07:11:39;9.30;99.90
5009;DHT22;2523;51.058;6.922;2023-04-24T07:14:06;9.20;1.00
5009;DHT22;2523;51.058;6.922;2023-04-24T07:16:31;9.10;99.90
5009;DHT22;2523;51.058;6.922;2023-04-24T07:18:57;9.10;99.90
5009;DHT22;2523;51.058;6.922;2023-04-24T07:21:22;9.00;99.90
5009;DHT22;2523;51.058;6.922;2023-04-24T07:23:48;9.00;99.90
5009;DHT22;2523;51.058;6.922;2023-04-24T07:26:13;9.00;99.90
5009;DHT22;2523;51.058;6.922;2023-04-24T07:28:40;9.10;99.90
5009;DHT22;2523;51.058;6.922;2023-04-24T07:31:06;9.10;1.00
5009;DHT22;2523;51.058;6.922;2023-04-24T07:33:32;9.00;53.50
5009;DHT22;2523;51.058;6.922;2023-04-24T07:35:58;9.00;99.90
5009;DHT22;2523;51.058;6.922;2023-04-24T07:38:24;9.00;99.90
5009;DHT22;2523;51.058;6.922;2023-04-24T07:40:51;8.90;99.90
5009;DHT22;2523;51.058;6.922;2023-04-24T07:43:17;9.00;99.90
5009;DHT22;2523;51.058;6.922;2023-04-24T07:45:42;9.00;99.90
5009;DHT22;2523;51.058;6.922;2023-04-24T07:48:08;9.00;99.90
5009;DHT22;2523;51.058;6.922;2023-04-24T07:50:34;9.00;99.90
5009;DHT22;2523;51.058;6.922;2023-04-24T07:53:01;8.90;99.90
5009;DHT22;2523;51.058;6.922;2023-04-24T07:55:27;8.90;99.90
5009;DHT22;2523;51.058;6.922;2023-04-24T07:57:53;8.80;99.90
5009;DHT22;2523;51.058;6.922;2023-04-24T08:00:18;8.70;99.90
5009;DHT22;2523;51.058;6.922;2023-04-24T08:02:45;8.70;99.90
5009;DHT22;2523;51.058;6.922;2023-04-24T08:05:10;8.70;99.90
5009;DHT22;2523;51.058;6.922;2023-04-24T08:07:36;8.70;99.90
5009;DHT22;2523;51.058;6.922;2023-04-24T08:10:02;8.60;99.90
5009;DHT22;2523;51.058;6.922;2023-04-24T08:12:30;8.60;99.90
5009;DHT22;2523;51.058;6.922;2023-04-24T08:14:56;8.60;99.90
5009;DHT22;2523;51.058;6.922;2023-04-24T08:17:22;8.50;99.90
5009;DHT22;2523;51.058;6.922;2023-04-24T08:19:47;8.40;99.90
5009;DHT22;2523;51.058;6.922;2023-04-24T08:22:14;8.40;99.90
5009;DHT22;2523;51.058;6.922;2023-04-24T08:24:40;8.40;99.90
5009;DHT22;2523;51.058;6.922;2023-04-24T08:27:06;8.40;99.90
5009;DHT22;2523;51.058;6.922;2023-04-24T08:29:31;8.30;99.90
5009;DHT22;2523;51.058;6.922;2023-04-24T08:31:57;8.20;99.90
5009;DHT22;2523;51.058;6.922;2023-04-24T08:34:23;8.20;99.90
5009;DHT22;2523;51.058;6.922;2023-04-24T08:36:48;8.30;99.90
5009;DHT22;2523;51.058;6.922;2023-04-24T08:39:14;8.20;99.90
5009;DHT22;2523;51.058;6.922;2023-04-24T08:41:42;8.20;99.90
5009;DHT22;2523;51.058;6.922;2023-04-24T08:44:12;8.20;99.90
5009;DHT22;2523;51.058;6.922;2023-04-24T08:46:41;8.20;99.90
5009;DHT22;2523;51.058;6.922;2023-04-24T08:49:07;8.20;99.90
5009;DHT22;2523;51.058;6.922;2023-04-24T08:51:33;8.20;99.90
5009;DHT22;2523;51.058;6.922;2023-04-24T08:53:59;8.20;99.90
5009;DHT22;2523;51.058;6.922;2023-04-24T08:56:26;8.20;99.90
5009;DHT22;2523;51.058;6.922;2023-04-24T08:58:53;8.20;99.90
5009;DHT22;2523;51.058;6.922;2023-04-24T09:01:20;8.30;99.90
5009;DHT22;2523;51.058;6.922;2023-04-24T09:03:48;8.30;99.90
5009;DHT22;2523;51.058;6.922;2023-04-24T09:06:15;8.30;99.90
5009;DHT22;2523;51.058;6.922;2023-04-24T09:08:42;8.30;99.90
5009;DHT22;2523;51.058;6.922;2023-04-24T09:11:10;8.40;99.90
5009;DHT22;2523;51.058;6.922;2023-04-24T09:13:36;8.40;99.90
5009;DHT22;2523;51.058;6.922;2023-04-24T09:16:02;8.40;99.90
5009;DHT22;2523;51.058;6.922;2023-04-24T09:18:28;8.50;99.90
5009;DHT22;2523;51.058;6.922;2023-04-24T09:20:58;8.50;99.90
5009;DHT22;2523;51.058;6.922;2023-04-24T09:23:26;8.40;99.90
5009;DHT22;2523;51.058;6.922;2023-04-24T09:25:55;8.50;99.90
5009;DHT22;2523;51.058;6.922;2023-04-24T09:28:32;8.50;99.90
5009;DHT22;2523;51.058;6.922;2023-04-24T09:31:09;8.50;99.90
5009;DHT22;2523;51.058;6.922;2023-04-24T09:33:36;8.50;99.90
5009;DHT22;2523;51.058;6.922;2023-04-24T09:36:02;8.50;99.90
5009;DHT22;2523;51.058;6.922;2023-04-24T09:38:37;8.50;99.90
5009;DHT22;2523;51.058;6.922;2023-04-24T09:41:08;8.60;99.90
5009;DHT22;2523;51.058;6.922;2023-04-24T09:43:34;8.70;99.90
5009;DHT22;2523;51.058;6.922;2023-04-24T09:46:06;8.70;99.90
5009;DHT22;2523;51.058;6.922;2023-04-24T09:48:36;8.70;99.90
5009;DHT22;2523;51.058;6.922;2023-04-24T09:51:04;8.80;99.90
5009;DHT22;2523;51.058;6.922;2023-04-24T09:53:32;8.80;99.90
5009;DHT22;2523;51.058;6.922;2023-04-24T09:56:08;8.90;99.90
5009;DHT22;2523;51.058;6.922;2023-04-24T09:58:35;8.80;99.90
5009;DHT22;2523;51.058;6.922;2023-04-24T10:01:01;9.00;99.90
5009;DHT22;2523;51.058;6.922;2023-04-24T10:03:30;9.10;99.90
5009;DHT22;2523;51.058;6.922;2023-04-24T10:05:58;9.20;99.90
5009;DHT22;2523;51.058;6.922;2023-04-24T10:08:25;9.30;99.90
5009;DHT22;2523;51.058;6.922;2023-04-24T10:10:52;9.40;99.90
5009;DHT22;2523;51.058;6.922;2023-04-24T10:13:18;9.40;99.90
5009;DHT22;2523;51.058;6.922;2023-04-24T10:15:44;9.50;99.90
5009;DHT22;2523;51.058;6.922;2023-04-24T10:18:11;9.50;99.90
5009;DHT22;2523;51.058;6.922;2023-04-24T10:20:39;9.70;99.90
5009;DHT22;2523;51.058;6.922;2023-04-24T10:23:05;9.70;99.90
5009;DHT22;2523;51.058;6.922;2023-04-24T10:25:33;9.80;99.90
5009;DHT22;2523;51.058;6.922;2023-04-24T10:28:00;9.80;99.90
5009;DHT22;2523;51.058;6.922;2023-04-24T10:30:30;9.90;99.90
5009;DHT22;2523;51.058;6.922;2023-04-24T10:33:03;10.10;99.90
5009;DHT22;2523;51.058;6.922;2023-04-24T10:35:35;10.20;99.90
5009;DHT22;2523;51.058;6.922;2023-04-24T10:38:09;10.20;99.90
5009;DHT22;2523;51.058;6.922;2023-04-24T10:40:36;10.10;99.90
5009;DHT22;2523;51.058;6.922;2023-04-24T10:43:03;10.10;99.90
5009;DHT22;2523;51.058;6.922;2023-04-24T10:45:31;10.00;99.90
5009;DHT22;2523;51.058;6.922;2023-04-24T10:48:05;10.00;99.90
5009;DHT22;2523;51.058;6.922;2023-04-24T10:50:52;9.90;99.90
5009;DHT22;2523;51.058;6.922;2023-04-24T10:53:20;9.90;99.90
5009;DHT22;2523;51.058;6.922;2023-04-24T10:55:51;9.90;99.90
5009;DHT22;2523;51.058;6.922;2023-04-24T10:58:21;9.90;99.90
5009;DHT22;2523;51.058;6.922;2023-04-24T11:00:59;9.90;99.90
5009;DHT22;2523;51.058;6.922;2023-04-24T11:03:29;9.90;99.90
5009;DHT22;2523;51.058;6.922;2023-04-24T11:06:08;9.90;99.90
5009;DHT22;2523;51.058;6.922;2023-04-24T11:08:38;9.90;99.90
5009;DHT22;2523;51.058;6.922;2023-04-24T11:19:17;9.80;99.90
5009;DHT22;2523;51.058;6.922;2023-04-24T11:21:47;9.90;99.90
5009;DHT22;2523;51.058;6.922;2023-04-24T11:24:28;10.00;99.90
5009;DHT22;2523;51.058;6.922;2023-04-24T11:29:47;10.50;53.20
5009;DHT22;2523;51.058;6.922;2023-04-24T11:37:33;11.60;1.00
5009;DHT22;2523;51.058;6.922;2023-04-24T11:39:59;11.90;1.00
5009;DHT22;2523;51.058;6.922;2023-04-24T11:42:25;12.00;99.90
5009;DHT22;2523;51.058;6.922;2023-04-24T11:44:55;12.00;1.00
5009;DHT22;2523;51.058;6.922;2023-04-24T11:47:29;12.00;1.00
5009;DHT22;2523;51.058;6.922;2023-04-24T11:49:55;11.90;1.00
5009;DHT22;2523;51.058;6.922;2023-04-24T11:52:20;11.70;1.00
5009;DHT22;2523;51.058;6.922;2023-04-24T11:54:48;11.70;1.00
5009;DHT22;2523;51.058;6.922;2023-04-24T11:57:14;11.80;1.00
5009;DHT22;2523;51.058;6.922;2023-04-24T11:59:39;11.50;1.00
5009;DHT22;2523;51.058;6.922;2023-04-24T12:02:05;11.40;99.90
5009;DHT22;2523;51.058;6.922;2023-04-24T12:04:39;11.30;1.00
5009;DHT22;2523;51.058;6.922;2023-04-24T12:07:05;11.00;99.90
5009;DHT22;2523;51.058;6.922;2023-04-24T12:09:47;10.90;1.00
5009;DHT22;2523;51.058;6.922;2023-04-24T12:12:16;10.70;1.00
5009;DHT22;2523;51.058;6.922;2023-04-24T12:14:48;10.60;1.00
5009;DHT22;2523;51.058;6.922;2023-04-24T12:17:15;10.60;99.90
5009;DHT22;2523;51.058;6.922;2023-04-24T12:19:48;10.50;81.10
5009;DHT22;2523;51.058;6.922;2023-04-24T12:22:14;10.50;99.90
5009;DHT22;2523;51.058;6.922;2023-04-24T12:27:22;10.40;1.00
5009;DHT22;2523;51.058;6.922;2023-04-24T12:30:01;10.40;1.00
5009;DHT22;2523;51.058;6.922;2023-04-24T12:32:27;10.60;1.00
5009;DHT22;2523;51.058;6.922;2023-04-24T12:34:54;10.60;1.00
5009;DHT22;2523;51.058;6.922;2023-04-24T12:37:20;10.90;1.00
5009;DHT22;2523;51.058;6.922;2023-04-24T12:40:10;11.20;1.00
5009;DHT22;2523;51.058;6.922;2023-04-24T12:42:48;11.80;1.00
5009;DHT22;2523;51.058;6.922;2023-04-24T12:45:15;12.50;1.00
5009;DHT22;2523;51.058;6.922;2023-04-24T12:47:41;13.10;99.90
5009;DHT22;2523;51.058;6.922;2023-04-24T12:50:09;13.30;99.90
5009;DHT22;2523;51.058;6.922;2023-04-24T12:52:35;13.20;99.90
5009;DHT22;2523;51.058;6.922;2023-04-24T12:55:02;12.80;99.90
5009;DHT22;2523;51.058;6.922;2023-04-24T12:57:29;13.00;99.90
5009;DHT22;2523;51.058;6.922;2023-04-24T12:59:56;13.20;99.90
5009;DHT22;2523;51.058;6.922;2023-04-24T13:02:23;13.40;99.90
5009;DHT22;2523;51.058;6.922;2023-04-24T13:04:50;13.40;99.90
5009;DHT22;2523;51.058;6.922;2023-04-24T13:07:16;13.60;99.90
5009;DHT22;2523;51.058;6.922;2023-04-24T13:09:42;13.70;99.90
5009;DHT22;2523;51.058;6.922;2023-04-24T13:12:09;13.50;99.90
5009;DHT22;2523;51.058;6.922;2023-04-24T13:14:35;13.60;99.90
5009;DHT22;2523;51.058;6.922;2023-04-24T13:17:01;13.40;99.90
5009;DHT22;2523;51.058;6.922;2023-04-24T13:19:27;13.30;99.90
5009;DHT22;2523;51.058;6.922;2023-04-24T13:21:55;13.40;99.90
5009;DHT22;2523;51.058;6.922;2023-04-24T13:24:21;13.40;99.90
5009;DHT22;2523;51.058;6.922;2023-04-24T13:26:50;13.30;99.90
5009;DHT22;2523;51.058;6.922;2023-04-24T13:29:16;13.30;99.90
5009;DHT22;2523;51.058;6.922;2023-04-24T13:31:42;13.30;99.90
5009;DHT22;2523;51.058;6.922;2023-04-24T13:34:07;13.50;99.90
5009;DHT22;2523;51.058;6.922;2023-04-24T13:36:33;14.10;99.90
5009;DHT22;2523;51.058;6.922;2023-04-24T13:38:58;14.10;99.90
5009;DHT22;2523;51.058;6.922;2023-04-24T13:41:24;13.90;99.90
5009;DHT22;2523;51.058;6.922;2023-04-24T13:43:50;13.70;99.90
5009;DHT22;2523;51.058;6.922;2023-04-24T13:46:16;13.30;99.90
5009;DHT22;2523;51.058;6.922;2023-04-24T13:48:41;13.10;99.90
5009;DHT22;2523;51.058;6.922;2023-04-24T13:51:07;12.90;99.90
5009;DHT22;2523;51.058;6.922;2023-04-24T13:53:32;12.50;99.90
5009;DHT22;2523;51.058;6.922;2023-04-24T13:56:01;12.50;99.90
5009;DHT22;2523;51.058;6.922;2023-04-24T13:58:27;12.40;99.90
5009;DHT22;2523;51.058;6.922;2023-04-24T14:00:53;12.20;99.90
5009;DHT22;2523;51.058;6.922;2023-04-24T14:03:18;12.10;99.90
5009;DHT22;2523;51.058;6.922;2023-04-24T14:05:44;12.10;99.90
5009;DHT22;2523;51.058;6.922;2023-04-24T14:08:09;12.30;99.90
5009;DHT22;2523;51.058;6.922;2023-04-24T14:10:35;12.90;99.90
5009;DHT22;2523;51.058;6.922;2023-04-24T14:13:00;13.30;99.90
5009;DHT22;2523;51.058;6.922;2023-04-24T14:15:26;13.30;99.90
5009;DHT22;2523;51.058;6.922;2023-04-24T14:17:52;13.30;99.90
5009;DHT22;2523;51.058;6.922;2023-04-24T14:20:17;13.40;99.90
5009;DHT22;2523;51.058;6.922;2023-04-24T14:22:43;13.30;99.90
5009;DHT22;2523;51.058;6.922;2023-04-24T14:25:09;13.40;99.90
5009;DHT22;2523;51.058;6.922;2023-04-24T14:27:34;13.60;99.90
5009;DHT22;2523;51.058;6.922;2023-04-24T14:30:00;13.40;99.90
5009;DHT22;2523;51.058;6.922;2023-04-24T14:32:26;13.30;99.90
5009;DHT22;2523;51.058;6.922;2023-04-24T14:34:51;13.30;99.90
5009;DHT22;2523;51.058;6.922;2023-04-24T14:37:17;13.40;99.90
5009;DHT22;2523;51.058;6.922;2023-04-24T14:39:43;13.40;99.90
5009;DHT22;2523;51.058;6.922;2023-04-24T14:42:08;13.40;99.90
5009;DHT22;2523;51.058;6.922;2023-04-24T14:44:34;13.30;99.90
5009;DHT22;2523;51.058;6.922;2023-04-24T14:46:59;13.20;99.90
5009;DHT22;2523;51.058;6.922;2023-04-24T14:49:25;13.20;99.90
5009;DHT22;2523;51.058;6.922;2023-04-24T14:51:51;13.30;99.90
5009;DHT22;2523;51.058;6.922;2023-04-24T14:54:17;13.60;99.90
5009;DHT22;2523;51.058;6.922;2023-04-24T14:56:42;13.80;99.90
5009;DHT22;2523;51.058;6.922;2023-04-24T14:59:09;13.90;99.90
5009;DHT22;2523;51.058;6.922;2023-04-24T15:01:35;13.80;98.70
5009;DHT22;2523;51.058;6.922;2023-04-24T15:04:01;13.80;99.90
5009;DHT22;2523;51.058;6.922;2023-04-24T15:06:26;13.80;99.90
5009;DHT22;2523;51.058;6.922;2023-04-24T15:08:52;13.90;99.90
5009;DHT22;2523;51.058;6.922;2023-04-24T15:11:18;14.20;99.90
5009;DHT22;2523;51.058;6.922;2023-04-24T15:13:43;14.20;94.10
5009;DHT22;2523;51.058;6.922;2023-04-24T15:16:10;14.10;99.00
5009;DHT22;2523;51.058;6.922;2023-04-24T15:18:36;14.10;99.90
5009;DHT22;2523;51.058;6.922;2023-04-24T15:21:02;14.00;95.50
5009;DHT22;2523;51.058;6.922;2023-04-24T15:23:27;13.90;89.40
5009;DHT22;2523;51.058;6.922;2023-04-24T15:25:53;13.70;78.90
5009;DHT22;2523;51.058;6.922;2023-04-24T15:28:19;13.70;98.70
5009;DHT22;2523;51.058;6.922;2023-04-24T15:30:47;13.70;99.90
5009;DHT22;2523;51.058;6.922;2023-04-24T15:33:12;13.80;99.90
5009;DHT22;2523;51.058;6.922;2023-04-24T15:35:38;13.70;99.90
5009;DHT22;2523;51.058;6.922;2023-04-24T15:38:03;13.50;93.70
5009;DHT22;2523;51.058;6.922;2023-04-24T15:40:29;13.40;99.90
5009;DHT22;2523;51.058;6.922;2023-04-24T15:42:55;13.50;99.90
5009;DHT22;2523;51.058;6.922;2023-04-24T15:45:20;13.50;96.50
5009;DHT22;2523;51.058;6.922;2023-04-24T15:47:46;13.50;74.50
5009;DHT22;2523;51.058;6.922;2023-04-24T15:50:12;13.50;63.80
5009;DHT22;2523;51.058;6.922;2023-04-24T15:52:39;13.70;99.90
5009;DHT22;2523;51.058;6.922;2023-04-24T15:55:05;13.90;99.90
5009;DHT22;2523;51.058;6.922;2023-04-24T15:57:31;13.90;99.90
5009;DHT22;2523;51.058;6.922;2023-04-24T15:59:57;13.70;99.90
5009;DHT22;2523;51.058;6.922;2023-04-24T16:02:22;13.50;99.90
5009;DHT22;2523;51.058;6.922;2023-04-24T16:04:49;13.50;99.90
5009;DHT22;2523;51.058;6.922;2023-04-24T16:07:15;13.50;99.90
5009;DHT22;2523;51.058;6.922;2023-04-24T16:09:44;13.50;99.90
5009;DHT22;2523;51.058;6.922;2023-04-24T16:12:10;13.50;99.90
5009;DHT22;2523;51.058;6.922;2023-04-24T16:14:36;13.50;92.80
5009;DHT22;2523;51.058;6.922;2023-04-24T16:17:02;13.40;97.70
5009;DHT22;2523;51.058;6.922;2023-04-24T16:19:28;13.20;99.10
5009;DHT22;2523;51.058;6.922;2023-04-24T16:21:54;13.20;98.70
5009;DHT22;2523;51.058;6.922;2023-04-24T16:24:22;13.30;91.40
5009;DHT22;2523;51.058;6.922;2023-04-24T16:26:48;13.40;99.90